Terminal Aerodrome Forecast
Issued by NWS Tiyan, Guam

Home | Current Version | Previous Version | Text Only | Print | Product List | Glossary On
Versions: 1 2 3 4 5 6 7 8 9 10 11 12 13
000
FTPQ31 PGUM 141538 AAA
TAFGUM
TAF AMD
PGUM 141538Z 1416/1518 09008KT P6SM VCSH FEW018 SCT050
      TEMPO 1416/1420 -SHRA SCT014 BKN030=

USA.gov is the U.S. government's official web portal to all federal, state and local government web resources and services.